sensor_id;sensor_type;location;lat;lon;timestamp;P1;durP1;ratioP1;P2;durP2;ratioP2
11263;SDS011;5689;48.798;9.070;2023-09-19T00:02:16;0.10;;;0.10;;
11263;SDS011;5689;48.798;9.070;2023-09-19T00:04:45;0.10;;;0.10;;
11263;SDS011;5689;48.798;9.070;2023-09-19T00:07:15;0.10;;;0.10;;
11263;SDS011;5689;48.798;9.070;2023-09-19T00:09:43;0.10;;;0.10;;
11263;SDS011;5689;48.798;9.070;2023-09-19T00:12:13;0.15;;;0.15;;
11263;SDS011;5689;48.798;9.070;2023-09-19T00:14:41;0.10;;;0.10;;
11263;SDS011;5689;48.798;9.070;2023-09-19T00:17:09;0.10;;;0.10;;
11263;SDS011;5689;48.798;9.070;2023-09-19T00:19:38;0.10;;;0.10;;
11263;SDS011;5689;48.798;9.070;2023-09-19T00:22:09;0.10;;;0.10;;
11263;SDS011;5689;48.798;9.070;2023-09-19T00:24:37;0.10;;;0.10;;
11263;SDS011;5689;48.798;9.070;2023-09-19T00:27:05;0.15;;;0.15;;
11263;SDS011;5689;48.798;9.070;2023-09-19T00:29:35;0.10;;;0.10;;
11263;SDS011;5689;48.798;9.070;2023-09-19T00:32:03;0.10;;;0.10;;
11263;SDS011;5689;48.798;9.070;2023-09-19T00:34:31;0.10;;;0.10;;
11263;SDS011;5689;48.798;9.070;2023-09-19T00:37:02;0.10;;;0.10;;
11263;SDS011;5689;48.798;9.070;2023-09-19T00:39:30;0.15;;;0.15;;
11263;SDS011;5689;48.798;9.070;2023-09-19T00:41:58;0.10;;;0.10;;
11263;SDS011;5689;48.798;9.070;2023-09-19T00:44:31;0.10;;;0.10;;
11263;SDS011;5689;48.798;9.070;2023-09-19T00:47:00;0.10;;;0.10;;
11263;SDS011;5689;48.798;9.070;2023-09-19T00:49:29;0.10;;;0.10;;
11263;SDS011;5689;48.798;9.070;2023-09-19T00:52:01;0.10;;;0.10;;
11263;SDS011;5689;48.798;9.070;2023-09-19T00:54:31;0.00;;;0.00;;
11263;SDS011;5689;48.798;9.070;2023-09-19T00:57:00;0.20;;;0.20;;
11263;SDS011;5689;48.798;9.070;2023-09-19T00:59:28;0.10;;;0.10;;
11263;SDS011;5689;48.798;9.070;2023-09-19T01:01:56;0.10;;;0.10;;
11263;SDS011;5689;48.798;9.070;2023-09-19T01:04:26;0.00;;;0.00;;
11263;SDS011;5689;48.798;9.070;2023-09-19T01:06:56;0.10;;;0.10;;
11263;SDS011;5689;48.798;9.070;2023-09-19T01:09:26;0.10;;;0.10;;
11263;SDS011;5689;48.798;9.070;2023-09-19T01:11:57;0.10;;;0.10;;
11263;SDS011;5689;48.798;9.070;2023-09-19T01:14:29;0.10;;;0.10;;
11263;SDS011;5689;48.798;9.070;2023-09-19T01:17:06;0.10;;;0.10;;
11263;SDS011;5689;48.798;9.070;2023-09-19T01:22:41;0.10;;;0.10;;
11263;SDS011;5689;48.798;9.070;2023-09-19T01:28:30;0.10;;;0.10;;
11263;SDS011;5689;48.798;9.070;2023-09-19T01:31:06;0.10;;;0.10;;
11263;SDS011;5689;48.798;9.070;2023-09-19T01:33:53;0.10;;;0.10;;
11263;SDS011;5689;48.798;9.070;2023-09-19T01:36:26;0.10;;;0.10;;
11263;SDS011;5689;48.798;9.070;2023-09-19T01:38:55;0.10;;;0.10;;
11263;SDS011;5689;48.798;9.070;2023-09-19T01:41:26;0.10;;;0.10;;
11263;SDS011;5689;48.798;9.070;2023-09-19T01:44:09;0.10;;;0.10;;
11263;SDS011;5689;48.798;9.070;2023-09-19T01:46:45;0.10;;;0.10;;
11263;SDS011;5689;48.798;9.070;2023-09-19T01:49:17;0.10;;;0.10;;
11263;SDS011;5689;48.798;9.070;2023-09-19T01:51:56;0.10;;;0.10;;
11263;SDS011;5689;48.798;9.070;2023-09-19T01:54:33;0.00;;;0.00;;
11263;SDS011;5689;48.798;9.070;2023-09-19T01:57:09;0.00;;;0.00;;
11263;SDS011;5689;48.798;9.070;2023-09-19T01:59:45;0.10;;;0.10;;
11263;SDS011;5689;48.798;9.070;2023-09-19T02:02:19;0.10;;;0.10;;
11263;SDS011;5689;48.798;9.070;2023-09-19T02:04:49;0.10;;;0.10;;
11263;SDS011;5689;48.798;9.070;2023-09-19T02:07:17;0.10;;;0.10;;
11263;SDS011;5689;48.798;9.070;2023-09-19T02:09:45;0.10;;;0.10;;
11263;SDS011;5689;48.798;9.070;2023-09-19T02:12:14;0.10;;;0.10;;
11263;SDS011;5689;48.798;9.070;2023-09-19T02:14:42;0.10;;;0.10;;
11263;SDS011;5689;48.798;9.070;2023-09-19T02:17:10;0.10;;;0.10;;
11263;SDS011;5689;48.798;9.070;2023-09-19T02:19:39;0.10;;;0.10;;
11263;SDS011;5689;48.798;9.070;2023-09-19T02:22:07;0.10;;;0.10;;
11263;SDS011;5689;48.798;9.070;2023-09-19T02:24:36;0.10;;;0.10;;
11263;SDS011;5689;48.798;9.070;2023-09-19T02:27:05;0.10;;;0.10;;
11263;SDS011;5689;48.798;9.070;2023-09-19T02:29:34;0.00;;;0.00;;
11263;SDS011;5689;48.798;9.070;2023-09-19T02:32:02;0.10;;;0.10;;
11263;SDS011;5689;48.798;9.070;2023-09-19T02:34:30;0.10;;;0.10;;
11263;SDS011;5689;48.798;9.070;2023-09-19T02:37:00;0.10;;;0.10;;
11263;SDS011;5689;48.798;9.070;2023-09-19T02:39:30;0.10;;;0.10;;
11263;SDS011;5689;48.798;9.070;2023-09-19T02:41:58;0.00;;;0.00;;
11263;SDS011;5689;48.798;9.070;2023-09-19T02:44:26;0.10;;;0.10;;
11263;SDS011;5689;48.798;9.070;2023-09-19T02:46:55;0.10;;;0.10;;
11263;SDS011;5689;48.798;9.070;2023-09-19T02:49:23;0.10;;;0.10;;
11263;SDS011;5689;48.798;9.070;2023-09-19T02:51:51;0.10;;;0.10;;
11263;SDS011;5689;48.798;9.070;2023-09-19T02:54:21;0.10;;;0.10;;
11263;SDS011;5689;48.798;9.070;2023-09-19T02:56:49;0.13;;;0.13;;
11263;SDS011;5689;48.798;9.070;2023-09-19T02:59:20;0.10;;;0.10;;
11263;SDS011;5689;48.798;9.070;2023-09-19T03:01:48;0.10;;;0.10;;
11263;SDS011;5689;48.798;9.070;2023-09-19T03:04:16;0.10;;;0.10;;
11263;SDS011;5689;48.798;9.070;2023-09-19T03:06:47;0.10;;;0.10;;
11263;SDS011;5689;48.798;9.070;2023-09-19T03:09:17;0.10;;;0.10;;
11263;SDS011;5689;48.798;9.070;2023-09-19T03:11:47;0.00;;;0.00;;
11263;SDS011;5689;48.798;9.070;2023-09-19T03:14:16;0.03;;;0.03;;
11263;SDS011;5689;48.798;9.070;2023-09-19T03:16:47;0.00;;;0.00;;
11263;SDS011;5689;48.798;9.070;2023-09-19T03:19:15;0.10;;;0.10;;
11263;SDS011;5689;48.798;9.070;2023-09-19T03:21:43;0.10;;;0.10;;
11263;SDS011;5689;48.798;9.070;2023-09-19T03:24:12;0.10;;;0.10;;
11263;SDS011;5689;48.798;9.070;2023-09-19T03:26:40;0.10;;;0.10;;
11263;SDS011;5689;48.798;9.070;2023-09-19T03:29:09;0.03;;;0.03;;
11263;SDS011;5689;48.798;9.070;2023-09-19T03:31:38;0.10;;;0.10;;
11263;SDS011;5689;48.798;9.070;2023-09-19T03:34:07;0.10;;;0.10;;
11263;SDS011;5689;48.798;9.070;2023-09-19T03:36:35;0.10;;;0.10;;
11263;SDS011;5689;48.798;9.070;2023-09-19T03:39:04;0.10;;;0.10;;
11263;SDS011;5689;48.798;9.070;2023-09-19T03:41:32;0.10;;;0.10;;
11263;SDS011;5689;48.798;9.070;2023-09-19T03:44:03;0.10;;;0.10;;
11263;SDS011;5689;48.798;9.070;2023-09-19T03:46:33;0.10;;;0.10;;
11263;SDS011;5689;48.798;9.070;2023-09-19T03:49:02;0.10;;;0.10;;
11263;SDS011;5689;48.798;9.070;2023-09-19T03:51:30;0.10;;;0.10;;
11263;SDS011;5689;48.798;9.070;2023-09-19T03:54:00;0.10;;;0.10;;
11263;SDS011;5689;48.798;9.070;2023-09-19T03:56:30;0.10;;;0.10;;
11263;SDS011;5689;48.798;9.070;2023-09-19T03:58:58;0.10;;;0.10;;
11263;SDS011;5689;48.798;9.070;2023-09-19T04:01:26;0.17;;;0.17;;
11263;SDS011;5689;48.798;9.070;2023-09-19T04:03:58;0.15;;;0.15;;
11263;SDS011;5689;48.798;9.070;2023-09-19T04:06:35;0.10;;;0.10;;
11263;SDS011;5689;48.798;9.070;2023-09-19T04:09:03;0.32;;;0.32;;
11263;SDS011;5689;48.798;9.070;2023-09-19T04:11:33;0.20;;;0.20;;
11263;SDS011;5689;48.798;9.070;2023-09-19T04:14:02;0.10;;;0.10;;
11263;SDS011;5689;48.798;9.070;2023-09-19T04:16:31;0.10;;;0.10;;
11263;SDS011;5689;48.798;9.070;2023-09-19T04:19:01;0.10;;;0.10;;
11263;SDS011;5689;48.798;9.070;2023-09-19T04:21:30;0.10;;;0.10;;
11263;SDS011;5689;48.798;9.070;2023-09-19T04:23:58;0.10;;;0.10;;
11263;SDS011;5689;48.798;9.070;2023-09-19T04:26:26;0.10;;;0.10;;
11263;SDS011;5689;48.798;9.070;2023-09-19T04:28:54;0.10;;;0.10;;
11263;SDS011;5689;48.798;9.070;2023-09-19T04:31:23;0.10;;;0.10;;
11263;SDS011;5689;48.798;9.070;2023-09-19T04:33:51;0.08;;;0.08;;
11263;SDS011;5689;48.798;9.070;2023-09-19T04:36:20;0.10;;;0.10;;
11263;SDS011;5689;48.798;9.070;2023-09-19T04:38:49;0.10;;;0.10;;
11263;SDS011;5689;48.798;9.070;2023-09-19T04:41:17;0.10;;;0.10;;
11263;SDS011;5689;48.798;9.070;2023-09-19T04:43:45;0.10;;;0.10;;
11263;SDS011;5689;48.798;9.070;2023-09-19T04:46:14;0.00;;;0.00;;
11263;SDS011;5689;48.798;9.070;2023-09-19T04:48:43;0.10;;;0.10;;
11263;SDS011;5689;48.798;9.070;2023-09-19T04:51:11;0.10;;;0.10;;
11263;SDS011;5689;48.798;9.070;2023-09-19T04:53:41;0.15;;;0.15;;
11263;SDS011;5689;48.798;9.070;2023-09-19T04:56:10;0.25;;;0.25;;
11263;SDS011;5689;48.798;9.070;2023-09-19T04:58:38;0.47;;;0.47;;
11263;SDS011;5689;48.798;9.070;2023-09-19T05:01:06;0.50;;;0.50;;
11263;SDS011;5689;48.798;9.070;2023-09-19T05:03:37;0.57;;;0.57;;
11263;SDS011;5689;48.798;9.070;2023-09-19T05:06:05;0.63;;;0.63;;
11263;SDS011;5689;48.798;9.070;2023-09-19T05:08:33;0.60;;;0.60;;
11263;SDS011;5689;48.798;9.070;2023-09-19T05:11:03;0.65;;;0.65;;
11263;SDS011;5689;48.798;9.070;2023-09-19T05:13:32;0.68;;;0.68;;
11263;SDS011;5689;48.798;9.070;2023-09-19T05:16:00;0.52;;;0.52;;
11263;SDS011;5689;48.798;9.070;2023-09-19T05:18:29;0.60;;;0.60;;
11263;SDS011;5689;48.798;9.070;2023-09-19T05:20:58;0.47;;;0.47;;
11263;SDS011;5689;48.798;9.070;2023-09-19T05:23:29;0.88;;;0.88;;
11263;SDS011;5689;48.798;9.070;2023-09-19T05:25:57;0.57;;;0.57;;
11263;SDS011;5689;48.798;9.070;2023-09-19T05:28:27;0.60;;;0.60;;
11263;SDS011;5689;48.798;9.070;2023-09-19T05:30:55;0.55;;;0.55;;
11263;SDS011;5689;48.798;9.070;2023-09-19T05:33:25;0.82;;;0.82;;
11263;SDS011;5689;48.798;9.070;2023-09-19T05:35:53;0.50;;;0.50;;
11263;SDS011;5689;48.798;9.070;2023-09-19T05:38:22;0.40;;;0.40;;
11263;SDS011;5689;48.798;9.070;2023-09-19T05:40:53;0.30;;;0.30;;
11263;SDS011;5689;48.798;9.070;2023-09-19T05:43:21;0.28;;;0.28;;
11263;SDS011;5689;48.798;9.070;2023-09-19T05:45:51;0.35;;;0.35;;
11263;SDS011;5689;48.798;9.070;2023-09-19T05:48:19;0.88;;;0.88;;
11263;SDS011;5689;48.798;9.070;2023-09-19T05:50:47;0.30;;;0.30;;
11263;SDS011;5689;48.798;9.070;2023-09-19T05:53:16;0.47;;;0.47;;
11263;SDS011;5689;48.798;9.070;2023-09-19T05:55:45;0.88;;;0.88;;
11263;SDS011;5689;48.798;9.070;2023-09-19T05:58:13;0.60;;;0.60;;
11263;SDS011;5689;48.798;9.070;2023-09-19T06:00:41;0.40;;;0.40;;
11263;SDS011;5689;48.798;9.070;2023-09-19T06:03:12;0.43;;;0.43;;
11263;SDS011;5689;48.798;9.070;2023-09-19T06:05:41;0.47;;;0.47;;
11263;SDS011;5689;48.798;9.070;2023-09-19T06:08:09;0.50;;;0.50;;
11263;SDS011;5689;48.798;9.070;2023-09-19T06:10:37;0.45;;;0.45;;
11263;SDS011;5689;48.798;9.070;2023-09-19T06:13:05;0.47;;;0.47;;
11263;SDS011;5689;48.798;9.070;2023-09-19T06:15:36;0.50;;;0.50;;
11263;SDS011;5689;48.798;9.070;2023-09-19T06:18:04;0.43;;;0.43;;
11263;SDS011;5689;48.798;9.070;2023-09-19T06:20:33;0.43;;;0.43;;
11263;SDS011;5689;48.798;9.070;2023-09-19T06:23:02;0.43;;;0.43;;
11263;SDS011;5689;48.798;9.070;2023-09-19T06:25:31;0.40;;;0.40;;
11263;SDS011;5689;48.798;9.070;2023-09-19T06:27:59;0.35;;;0.35;;
11263;SDS011;5689;48.798;9.070;2023-09-19T06:30:31;0.70;;;0.70;;
11263;SDS011;5689;48.798;9.070;2023-09-19T06:33:00;0.43;;;0.43;;
11263;SDS011;5689;48.798;9.070;2023-09-19T06:35:31;1.00;;;1.00;;
11263;SDS011;5689;48.798;9.070;2023-09-19T06:38:02;0.77;;;0.77;;
11263;SDS011;5689;48.798;9.070;2023-09-19T06:40:29;0.35;;;0.35;;
11263;SDS011;5689;48.798;9.070;2023-09-19T06:42:58;0.30;;;0.30;;
11263;SDS011;5689;48.798;9.070;2023-09-19T06:45:28;0.22;;;0.22;;
11263;SDS011;5689;48.798;9.070;2023-09-19T06:47:57;0.20;;;0.20;;
11263;SDS011;5689;48.798;9.070;2023-09-19T06:50:26;0.22;;;0.22;;
11263;SDS011;5689;48.798;9.070;2023-09-19T06:52:58;0.20;;;0.20;;
11263;SDS011;5689;48.798;9.070;2023-09-19T06:55:27;0.10;;;0.10;;
11263;SDS011;5689;48.798;9.070;2023-09-19T06:57:57;0.10;;;0.10;;
11263;SDS011;5689;48.798;9.070;2023-09-19T07:00:26;0.10;;;0.10;;
11263;SDS011;5689;48.798;9.070;2023-09-19T07:02:55;0.10;;;0.10;;
11263;SDS011;5689;48.798;9.070;2023-09-19T07:05:25;0.10;;;0.10;;
11263;SDS011;5689;48.798;9.070;2023-09-19T07:07:54;0.10;;;0.10;;
11263;SDS011;5689;48.798;9.070;2023-09-19T07:10:23;0.10;;;0.10;;
11263;SDS011;5689;48.798;9.070;2023-09-19T07:12:54;0.10;;;0.10;;
11263;SDS011;5689;48.798;9.070;2023-09-19T07:15:24;0.10;;;0.10;;
11263;SDS011;5689;48.798;9.070;2023-09-19T07:17:52;0.00;;;0.00;;
11263;SDS011;5689;48.798;9.070;2023-09-19T07:20:22;0.00;;;0.00;;
11263;SDS011;5689;48.798;9.070;2023-09-19T07:22:52;0.00;;;0.00;;
11263;SDS011;5689;48.798;9.070;2023-09-19T07:25:21;0.10;;;0.10;;
11263;SDS011;5689;48.798;9.070;2023-09-19T07:27:51;0.10;;;0.10;;
11263;SDS011;5689;48.798;9.070;2023-09-19T07:30:19;0.10;;;0.10;;
11263;SDS011;5689;48.798;9.070;2023-09-19T07:32:47;0.10;;;0.10;;
11263;SDS011;5689;48.798;9.070;2023-09-19T07:35:15;0.10;;;0.10;;
11263;SDS011;5689;48.798;9.070;2023-09-19T07:37:46;0.10;;;0.10;;
11263;SDS011;5689;48.798;9.070;2023-09-19T07:40:16;0.00;;;0.00;;
11263;SDS011;5689;48.798;9.070;2023-09-19T07:42:45;0.00;;;0.00;;
11263;SDS011;5689;48.798;9.070;2023-09-19T07:45:13;0.10;;;0.10;;
11263;SDS011;5689;48.798;9.070;2023-09-19T07:47:43;0.00;;;0.00;;
11263;SDS011;5689;48.798;9.070;2023-09-19T07:50:13;0.00;;;0.00;;
11263;SDS011;5689;48.798;9.070;2023-09-19T07:52:42;0.00;;;0.00;;
11263;SDS011;5689;48.798;9.070;2023-09-19T07:55:11;0.08;;;0.08;;
11263;SDS011;5689;48.798;9.070;2023-09-19T07:57:42;0.00;;;0.00;;
11263;SDS011;5689;48.798;9.070;2023-09-19T08:00:12;0.00;;;0.00;;
11263;SDS011;5689;48.798;9.070;2023-09-19T08:02:41;0.00;;;0.00;;
11263;SDS011;5689;48.798;9.070;2023-09-19T08:05:10;0.00;;;0.00;;
11263;SDS011;5689;48.798;9.070;2023-09-19T08:07:43;0.10;;;0.10;;
11263;SDS011;5689;48.798;9.070;2023-09-19T08:10:15;0.10;;;0.10;;
11263;SDS011;5689;48.798;9.070;2023-09-19T08:12:46;0.10;;;0.10;;
11263;SDS011;5689;48.798;9.070;2023-09-19T08:15:16;0.00;;;0.00;;
11263;SDS011;5689;48.798;9.070;2023-09-19T08:17:46;0.10;;;0.10;;
11263;SDS011;5689;48.798;9.070;2023-09-19T08:20:14;0.00;;;0.00;;
11263;SDS011;5689;48.798;9.070;2023-09-19T08:22:43;0.10;;;0.10;;
11263;SDS011;5689;48.798;9.070;2023-09-19T08:25:14;0.10;;;0.10;;
11263;SDS011;5689;48.798;9.070;2023-09-19T08:27:45;0.00;;;0.00;;
11263;SDS011;5689;48.798;9.070;2023-09-19T08:30:14;0.03;;;0.03;;
11263;SDS011;5689;48.798;9.070;2023-09-19T08:32:44;0.00;;;0.00;;
11263;SDS011;5689;48.798;9.070;2023-09-19T08:35:13;0.00;;;0.00;;
11263;SDS011;5689;48.798;9.070;2023-09-19T08:37:41;0.00;;;0.00;;
11263;SDS011;5689;48.798;9.070;2023-09-19T08:40:11;0.00;;;0.00;;
11263;SDS011;5689;48.798;9.070;2023-09-19T08:42:49;0.10;;;0.10;;
11263;SDS011;5689;48.798;9.070;2023-09-19T08:45:17;0.00;;;0.00;;
11263;SDS011;5689;48.798;9.070;2023-09-19T08:47:50;0.00;;;0.00;;
11263;SDS011;5689;48.798;9.070;2023-09-19T08:50:26;0.00;;;0.00;;
11263;SDS011;5689;48.798;9.070;2023-09-19T08:52:55;0.00;;;0.00;;
11263;SDS011;5689;48.798;9.070;2023-09-19T08:55:28;0.10;;;0.10;;
11263;SDS011;5689;48.798;9.070;2023-09-19T08:57:59;0.00;;;0.00;;
11263;SDS011;5689;48.798;9.070;2023-09-19T09:00:29;0.10;;;0.10;;
11263;SDS011;5689;48.798;9.070;2023-09-19T09:02:59;0.10;;;0.10;;
11263;SDS011;5689;48.798;9.070;2023-09-19T09:05:30;0.08;;;0.08;;
11263;SDS011;5689;48.798;9.070;2023-09-19T09:08:00;0.00;;;0.00;;
11263;SDS011;5689;48.798;9.070;2023-09-19T09:10:30;0.00;;;0.00;;
11263;SDS011;5689;48.798;9.070;2023-09-19T09:12:58;0.00;;;0.00;;
11263;SDS011;5689;48.798;9.070;2023-09-19T09:15:26;0.10;;;0.10;;
11263;SDS011;5689;48.798;9.070;2023-09-19T09:18:00;0.10;;;0.10;;
11263;SDS011;5689;48.798;9.070;2023-09-19T09:20:29;0.00;;;0.00;;
11263;SDS011;5689;48.798;9.070;2023-09-19T09:22:58;0.10;;;0.10;;
11263;SDS011;5689;48.798;9.070;2023-09-19T09:28:21;0.10;;;0.10;;
11263;SDS011;5689;48.798;9.070;2023-09-19T09:30:50;0.00;;;0.00;;
11263;SDS011;5689;48.798;9.070;2023-09-19T09:33:20;0.00;;;0.00;;
11263;SDS011;5689;48.798;9.070;2023-09-19T09:35:49;0.10;;;0.10;;
11263;SDS011;5689;48.798;9.070;2023-09-19T09:38:19;0.00;;;0.00;;
11263;SDS011;5689;48.798;9.070;2023-09-19T09:40:52;0.00;;;0.00;;
11263;SDS011;5689;48.798;9.070;2023-09-19T09:43:26;0.00;;;0.00;;
11263;SDS011;5689;48.798;9.070;2023-09-19T09:49:07;0.00;;;0.00;;
11263;SDS011;5689;48.798;9.070;2023-09-19T09:51:45;0.10;;;0.10;;
11263;SDS011;5689;48.798;9.070;2023-09-19T09:54:24;0.10;;;0.10;;
11263;SDS011;5689;48.798;9.070;2023-09-19T09:56:55;0.00;;;0.00;;
11263;SDS011;5689;48.798;9.070;2023-09-19T10:02:14;0.00;;;0.00;;
11263;SDS011;5689;48.798;9.070;2023-09-19T10:04:48;0.10;;;0.10;;
11263;SDS011;5689;48.798;9.070;2023-09-19T10:07:25;0.00;;;0.00;;
11263;SDS011;5689;48.798;9.070;2023-09-19T10:10:02;0.10;;;0.10;;
11263;SDS011;5689;48.798;9.070;2023-09-19T10:12:44;0.10;;;0.10;;
11263;SDS011;5689;48.798;9.070;2023-09-19T10:15:14;0.10;;;0.10;;
11263;SDS011;5689;48.798;9.070;2023-09-19T10:17:46;0.00;;;0.00;;
11263;SDS011;5689;48.798;9.070;2023-09-19T10:20:16;0.10;;;0.10;;
11263;SDS011;5689;48.798;9.070;2023-09-19T10:23:00;0.10;;;0.10;;
11263;SDS011;5689;48.798;9.070;2023-09-19T10:25:28;0.10;;;0.10;;
11263;SDS011;5689;48.798;9.070;2023-09-19T10:27:57;0.10;;;0.10;;
11263;SDS011;5689;48.798;9.070;2023-09-19T10:30:30;0.10;;;0.10;;
11263;SDS011;5689;48.798;9.070;2023-09-19T10:33:01;0.10;;;0.10;;
11263;SDS011;5689;48.798;9.070;2023-09-19T10:35:33;0.00;;;0.00;;
11263;SDS011;5689;48.798;9.070;2023-09-19T10:38:04;0.00;;;0.00;;
11263;SDS011;5689;48.798;9.070;2023-09-19T10:40:35;0.00;;;0.00;;
11263;SDS011;5689;48.798;9.070;2023-09-19T10:43:11;0.00;;;0.00;;
11263;SDS011;5689;48.798;9.070;2023-09-19T10:45:43;0.00;;;0.00;;
11263;SDS011;5689;48.798;9.070;2023-09-19T10:48:15;0.00;;;0.00;;
11263;SDS011;5689;48.798;9.070;2023-09-19T10:50:48;0.10;;;0.10;;
11263;SDS011;5689;48.798;9.070;2023-09-19T10:53:18;0.00;;;0.00;;
11263;SDS011;5689;48.798;9.070;2023-09-19T10:55:49;0.00;;;0.00;;
11263;SDS011;5689;48.798;9.070;2023-09-19T10:58:24;0.00;;;0.00;;
11263;SDS011;5689;48.798;9.070;2023-09-19T11:00:55;0.00;;;0.00;;
11263;SDS011;5689;48.798;9.070;2023-09-19T11:03:28;0.00;;;0.00;;
11263;SDS011;5689;48.798;9.070;2023-09-19T11:06:02;0.00;;;0.00;;
11263;SDS011;5689;48.798;9.070;2023-09-19T11:08:32;0.00;;;0.00;;
11263;SDS011;5689;48.798;9.070;2023-09-19T11:11:38;0.00;;;0.00;;
11263;SDS011;5689;48.798;9.070;2023-09-19T11:14:14;0.00;;;0.00;;
11263;SDS011;5689;48.798;9.070;2023-09-19T11:25:49;0.00;;;0.00;;
11263;SDS011;5689;48.798;9.070;2023-09-19T11:28:34;0.00;;;0.00;;
11263;SDS011;5689;48.798;9.070;2023-09-19T11:40:46;0.10;;;0.10;;
11263;SDS011;5689;48.798;9.070;2023-09-19T11:43:28;0.00;;;0.00;;
11263;SDS011;5689;48.798;9.070;2023-09-19T11:46:06;0.00;;;0.00;;
11263;SDS011;5689;48.798;9.070;2023-09-19T11:48:34;0.00;;;0.00;;
11263;SDS011;5689;48.798;9.070;2023-09-19T11:51:14;0.00;;;0.00;;
11263;SDS011;5689;48.798;9.070;2023-09-19T11:53:48;0.00;;;0.00;;
11263;SDS011;5689;48.798;9.070;2023-09-19T11:56:19;0.00;;;0.00;;
11263;SDS011;5689;48.798;9.070;2023-09-19T11:58:50;0.00;;;0.00;;
11263;SDS011;5689;48.798;9.070;2023-09-19T12:01:21;0.00;;;0.00;;
11263;SDS011;5689;48.798;9.070;2023-09-19T12:03:53;0.00;;;0.00;;
11263;SDS011;5689;48.798;9.070;2023-09-19T12:06:23;0.00;;;0.00;;
11263;SDS011;5689;48.798;9.070;2023-09-19T12:08:53;0.00;;;0.00;;
11263;SDS011;5689;48.798;9.070;2023-09-19T12:11:23;0.00;;;0.00;;
11263;SDS011;5689;48.798;9.070;2023-09-19T12:13:52;0.00;;;0.00;;
11263;SDS011;5689;48.798;9.070;2023-09-19T12:16:24;0.00;;;0.00;;
11263;SDS011;5689;48.798;9.070;2023-09-19T12:18:52;0.00;;;0.00;;
11263;SDS011;5689;48.798;9.070;2023-09-19T12:21:25;0.00;;;0.00;;
11263;SDS011;5689;48.798;9.070;2023-09-19T12:23:57;0.00;;;0.00;;
11263;SDS011;5689;48.798;9.070;2023-09-19T12:26:41;0.00;;;0.00;;
11263;SDS011;5689;48.798;9.070;2023-09-19T12:29:14;0.10;;;0.10;;
11263;SDS011;5689;48.798;9.070;2023-09-19T12:31:48;0.00;;;0.00;;
11263;SDS011;5689;48.798;9.070;2023-09-19T12:34:19;0.00;;;0.00;;
11263;SDS011;5689;48.798;9.070;2023-09-19T12:36:49;0.00;;;0.00;;
11263;SDS011;5689;48.798;9.070;2023-09-19T12:39:30;0.00;;;0.00;;
11263;SDS011;5689;48.798;9.070;2023-09-19T12:41:59;0.00;;;0.00;;
11263;SDS011;5689;48.798;9.070;2023-09-19T12:44:30;0.00;;;0.00;;
11263;SDS011;5689;48.798;9.070;2023-09-19T12:47:07;0.00;;;0.00;;
11263;SDS011;5689;48.798;9.070;2023-09-19T12:52:44;0.00;;;0.00;;
11263;SDS011;5689;48.798;9.070;2023-09-19T12:55:21;0.10;;;0.10;;
11263;SDS011;5689;48.798;9.070;2023-09-19T12:58:02;0.00;;;0.00;;
11263;SDS011;5689;48.798;9.070;2023-09-19T13:00:37;0.00;;;0.00;;
11263;SDS011;5689;48.798;9.070;2023-09-19T13:03:15;0.00;;;0.00;;
11263;SDS011;5689;48.798;9.070;2023-09-19T13:05:49;0.10;;;0.10;;
11263;SDS011;5689;48.798;9.070;2023-09-19T13:08:20;0.10;;;0.10;;
11263;SDS011;5689;48.798;9.070;2023-09-19T13:13:48;0.00;;;0.00;;
11263;SDS011;5689;48.798;9.070;2023-09-19T13:16:20;0.00;;;0.00;;
11263;SDS011;5689;48.798;9.070;2023-09-19T13:18:50;0.00;;;0.00;;
11263;SDS011;5689;48.798;9.070;2023-09-19T13:21:29;0.00;;;0.00;;
11263;SDS011;5689;48.798;9.070;2023-09-19T13:26:47;0.00;;;0.00;;
11263;SDS011;5689;48.798;9.070;2023-09-19T13:29:16;0.00;;;0.00;;
11263;SDS011;5689;48.798;9.070;2023-09-19T13:31:47;0.00;;;0.00;;
11263;SDS011;5689;48.798;9.070;2023-09-19T13:34:16;0.00;;;0.00;;
11263;SDS011;5689;48.798;9.070;2023-09-19T13:36:44;0.00;;;0.00;;
11263;SDS011;5689;48.798;9.070;2023-09-19T13:39:14;0.00;;;0.00;;
11263;SDS011;5689;48.798;9.070;2023-09-19T13:41:43;0.00;;;0.00;;
11263;SDS011;5689;48.798;9.070;2023-09-19T13:44:12;0.00;;;0.00;;
11263;SDS011;5689;48.798;9.070;2023-09-19T13:46:42;0.00;;;0.00;;
11263;SDS011;5689;48.798;9.070;2023-09-19T13:49:12;0.00;;;0.00;;
11263;SDS011;5689;48.798;9.070;2023-09-19T13:51:40;0.00;;;0.00;;
11263;SDS011;5689;48.798;9.070;2023-09-19T13:54:10;0.00;;;0.00;;
11263;SDS011;5689;48.798;9.070;2023-09-19T13:56:39;0.00;;;0.00;;
11263;SDS011;5689;48.798;9.070;2023-09-19T13:59:07;0.00;;;0.00;;
11263;SDS011;5689;48.798;9.070;2023-09-19T14:01:35;0.00;;;0.00;;
11263;SDS011;5689;48.798;9.070;2023-09-19T14:04:05;0.00;;;0.00;;
11263;SDS011;5689;48.798;9.070;2023-09-19T14:06:33;0.00;;;0.00;;
11263;SDS011;5689;48.798;9.070;2023-09-19T14:09:01;0.00;;;0.00;;
11263;SDS011;5689;48.798;9.070;2023-09-19T14:11:30;0.00;;;0.00;;
11263;SDS011;5689;48.798;9.070;2023-09-19T14:13:58;0.00;;;0.00;;
11263;SDS011;5689;48.798;9.070;2023-09-19T14:16:26;0.00;;;0.00;;
11263;SDS011;5689;48.798;9.070;2023-09-19T14:18:57;0.00;;;0.00;;
11263;SDS011;5689;48.798;9.070;2023-09-19T14:21:26;0.00;;;0.00;;
11263;SDS011;5689;48.798;9.070;2023-09-19T14:23:54;0.00;;;0.00;;
11263;SDS011;5689;48.798;9.070;2023-09-19T14:26:22;0.00;;;0.00;;
11263;SDS011;5689;48.798;9.070;2023-09-19T14:28:50;0.00;;;0.00;;
11263;SDS011;5689;48.798;9.070;2023-09-19T14:31:18;0.00;;;0.00;;
11263;SDS011;5689;48.798;9.070;2023-09-19T14:33:52;0.00;;;0.00;;
11263;SDS011;5689;48.798;9.070;2023-09-19T14:36:21;0.00;;;0.00;;
11263;SDS011;5689;48.798;9.070;2023-09-19T14:38:53;0.00;;;0.00;;
11263;SDS011;5689;48.798;9.070;2023-09-19T14:41:22;0.00;;;0.00;;
11263;SDS011;5689;48.798;9.070;2023-09-19T14:43:51;0.00;;;0.00;;
11263;SDS011;5689;48.798;9.070;2023-09-19T14:46:21;0.00;;;0.00;;
11263;SDS011;5689;48.798;9.070;2023-09-19T14:48:50;0.00;;;0.00;;
11263;SDS011;5689;48.798;9.070;2023-09-19T14:51:19;0.00;;;0.00;;
11263;SDS011;5689;48.798;9.070;2023-09-19T14:53:47;0.00;;;0.00;;
11263;SDS011;5689;48.798;9.070;2023-09-19T14:56:16;0.00;;;0.00;;
11263;SDS011;5689;48.798;9.070;2023-09-19T14:58:46;0.00;;;0.00;;
11263;SDS011;5689;48.798;9.070;2023-09-19T15:01:14;0.00;;;0.00;;
11263;SDS011;5689;48.798;9.070;2023-09-19T15:03:43;0.00;;;0.00;;
11263;SDS011;5689;48.798;9.070;2023-09-19T15:06:12;0.00;;;0.00;;
11263;SDS011;5689;48.798;9.070;2023-09-19T15:08:43;0.00;;;0.00;;
11263;SDS011;5689;48.798;9.070;2023-09-19T15:11:13;0.00;;;0.00;;
11263;SDS011;5689;48.798;9.070;2023-09-19T15:13:44;0.00;;;0.00;;
11263;SDS011;5689;48.798;9.070;2023-09-19T15:16:13;0.00;;;0.00;;
11263;SDS011;5689;48.798;9.070;2023-09-19T15:18:43;0.00;;;0.00;;
11263;SDS011;5689;48.798;9.070;2023-09-19T15:21:14;0.00;;;0.00;;
11263;SDS011;5689;48.798;9.070;2023-09-19T15:23:42;0.00;;;0.00;;
11263;SDS011;5689;48.798;9.070;2023-09-19T15:26:13;0.03;;;0.03;;
11263;SDS011;5689;48.798;9.070;2023-09-19T15:28:45;0.00;;;0.00;;
11263;SDS011;5689;48.798;9.070;2023-09-19T15:31:14;0.00;;;0.00;;
11263;SDS011;5689;48.798;9.070;2023-09-19T15:33:42;0.00;;;0.00;;
11263;SDS011;5689;48.798;9.070;2023-09-19T15:36:11;0.00;;;0.00;;
11263;SDS011;5689;48.798;9.070;2023-09-19T15:41:34;0.00;;;0.00;;
11263;SDS011;5689;48.798;9.070;2023-09-19T15:44:11;0.00;;;0.00;;
11263;SDS011;5689;48.798;9.070;2023-09-19T15:46:40;0.00;;;0.00;;
11263;SDS011;5689;48.798;9.070;2023-09-19T15:49:08;0.00;;;0.00;;
11263;SDS011;5689;48.798;9.070;2023-09-19T15:51:36;0.00;;;0.00;;
11263;SDS011;5689;48.798;9.070;2023-09-19T15:54:07;0.00;;;0.00;;
11263;SDS011;5689;48.798;9.070;2023-09-19T15:56:37;0.00;;;0.00;;
11263;SDS011;5689;48.798;9.070;2023-09-19T15:59:08;0.00;;;0.00;;
11263;SDS011;5689;48.798;9.070;2023-09-19T16:01:38;0.00;;;0.00;;
11263;SDS011;5689;48.798;9.070;2023-09-19T16:04:09;0.00;;;0.00;;
11263;SDS011;5689;48.798;9.070;2023-09-19T16:06:38;0.00;;;0.00;;